Time;durP1;ratioP1;P1;durP2;ratioP2;P2;SDS_P1;SDS_P2;PMS_P1;PMS_P2;Temp;Humidity;BMP_temperature;BMP_pressure;BME280_temperature;BME280_humidity;BME280_pressure;Samples;Min_cycle;Max_cycle;Signal;HPM_P1;HPM_P2
2022/06/18 00:00:52;;;;;;;23.00;13.60;;;;;;;11.84;74.33;99348.17;107991;1279;22592;-78
2022/06/18 00:03:19;;;;;;;21.40;14.50;;;;;;;11.81;74.58;99350.26;108022;1277;22541;-78
2022/06/18 00:05:49;;;;;;;24.10;14.70;;;;;;;11.80;74.94;99347.56;107985;1278;22560;-78
2022/06/18 00:08:23;;;;;;;25.60;16.50;;;;;;;11.76;74.96;99350.58;107965;1278;23323;-78
2022/06/18 00:13:39;;;;;;;24.80;16.10;;;;;;;11.71;74.97;99352.05;107924;1279;22714;-78
2022/06/18 00:13:48;;;;;;;24.30;13.50;;;;;;;11.68;74.68;99347.92;107978;1278;22534;-77
2022/06/18 00:16:19;;;;;;;22.90;13.80;;;;;;;11.69;74.78;99348.73;107988;1278;22589;-78
2022/06/18 00:18:47;;;;;;;19.00;12.30;;;;;;;11.69;75.10;99343.48;107971;1278;22566;-78
2022/06/18 00:21:21;;;;;;;20.60;13.50;;;;;;;11.68;75.51;99343.35;107944;1278;22769;-78
2022/06/18 00:23:49;;;;;;;23.10;14.00;;;;;;;11.65;75.16;99344.56;107959;1279;23212;-78
2022/06/18 00:26:16;;;;;;;20.40;13.60;;;;;;;11.61;75.03;99349.67;107977;1278;23374;-78
2022/06/18 00:28:44;;;;;;;19.10;12.70;;;;;;;11.57;74.91;99350.77;107988;1278;23442;-78
2022/06/18 00:31:11;;;;;;;17.30;11.20;;;;;;;11.57;74.95;99348.00;108125;1277;22546;-78
2022/06/18 00:33:40;;;;;;;21.30;12.00;;;;;;;11.55;75.30;99348.27;108002;1278;22573;-78
2022/06/18 00:36:15;;;;;;;20.50;13.40;;;;;;;11.53;75.56;99344.61;108029;1278;22563;-78
2022/06/18 00:38:45;;;;;;;20.70;13.40;;;;;;;11.49;75.43;99345.33;107966;1279;22544;-78
2022/06/18 00:41:21;;;;;;;22.90;13.60;;;;;;;11.45;75.16;99346.27;108001;1278;22584;-78
2022/06/18 00:44:01;;;;;;;21.10;12.40;;;;;;;11.41;75.03;99343.67;107968;1277;22767;-78
2022/06/18 00:46:47;;;;;;;20.30;11.40;;;;;;;11.40;75.01;99346.54;107981;1277;22592;-78
2022/06/18 00:49:33;;;;;;;17.90;12.30;;;;;;;11.38;75.31;99348.06;107969;1277;22534;-78
2022/06/18 00:52:21;;;;;;;19.50;12.10;;;;;;;11.32;75.57;99345.77;107999;1278;22540;-79
2022/06/18 00:55:06;;;;;;;16.30;11.90;;;;;;;11.27;75.48;99345.04;107993;1278;22578;-79
2022/06/18 00:57:58;;;;;;;19.80;11.90;;;;;;;11.22;75.02;99341.14;107961;1278;22543;-77
2022/06/18 01:00:40;;;;;;;15.80;10.90;;;;;;;11.18;74.92;99346.42;107961;1278;22759;-78
2022/06/18 01:03:25;;;;;;;15.90;10.50;;;;;;;11.17;75.24;99345.94;107999;1278;23356;-78
2022/06/18 01:05:55;;;;;;;16.40;11.20;;;;;;;11.15;75.60;99348.85;108034;1279;22587;-78
2022/06/18 01:08:26;;;;;;;22.00;11.90;;;;;;;11.11;75.96;99347.33;108040;1278;22556;-78
2022/06/18 01:10:57;;;;;;;21.50;13.30;;;;;;;11.06;75.98;99345.16;107961;1277;22572;-78
2022/06/18 01:13:31;;;;;;;19.50;12.70;;;;;;;11.02;75.63;99345.77;107935;1279;22543;-78
2022/06/18 01:15:58;;;;;;;17.00;10.80;;;;;;;10.99;75.48;99342.61;107965;1278;24378;-78
2022/06/18 01:18:27;;;;;;;18.70;12.00;;;;;;;11.01;75.61;99342.51;107968;1278;23605;-78
2022/06/18 01:21:05;;;;;;;15.30;10.40;;;;;;;11.02;75.84;99341.56;108015;1278;24473;-78
2022/06/18 01:23:39;;;;;;;17.70;10.90;;;;;;;11.02;76.02;99337.39;108005;1277;22720;-78
2022/06/18 01:26:08;;;;;;;18.10;11.70;;;;;;;11.00;76.04;99335.77;107977;1278;22556;-77
2022/06/18 01:28:35;;;;;;;17.30;11.00;;;;;;;10.99;75.72;99331.48;107965;1278;24264;-78
2022/06/18 01:31:02;;;;;;;13.30;9.50;;;;;;;10.98;75.44;99327.52;107995;1278;22557;-77
2022/06/18 01:33:32;;;;;;;12.90;9.20;;;;;;;11.00;75.64;99320.96;107971;1278;22606;-78
2022/06/18 01:36:03;;;;;;;19.30;10.90;;;;;;;11.00;76.01;99321.29;107971;1278;22580;-78
2022/06/18 01:38:32;;;;;;;16.00;10.30;;;;;;;10.97;76.10;99322.35;107974;1278;24442;-78
2022/06/18 01:43:56;;;;;;;19.40;11.80;;;;;;;10.86;75.75;99318.41;107949;1278;22614;-77
2022/06/18 01:46:25;;;;;;;18.30;11.50;;;;;;;10.81;75.71;99316.74;107984;1279;22581;-77
2022/06/18 01:48:54;;;;;;;16.40;9.80;;;;;;;10.80;75.77;99317.01;108014;1276;22555;-78
2022/06/18 01:51:26;;;;;;;18.40;10.80;;;;;;;10.78;76.20;99317.30;107980;1278;22560;-79
2022/06/18 01:54:01;;;;;;;19.40;11.60;;;;;;;10.76;76.87;99322.09;108035;1277;22572;-78
2022/06/18 01:56:37;;;;;;;18.00;12.00;;;;;;;10.68;77.10;99325.65;108032;1279;22617;-78
2022/06/18 01:59:19;;;;;;;18.70;12.80;;;;;;;10.65;76.48;99320.94;107925;1279;23357;-78
2022/06/18 02:01:48;;;;;;;16.20;11.30;;;;;;;10.63;76.20;99316.04;107961;1278;22580;-78
2022/06/18 02:04:18;;;;;;;19.50;12.20;;;;;;;10.65;76.23;99312.97;108322;1278;22547;-78
2022/06/18 02:06:46;;;;;;;20.80;12.30;;;;;;;10.65;76.71;99312.39;107981;1278;22565;-78
2022/06/18 02:09:16;;;;;;;22.40;13.30;;;;;;;10.63;77.02;99317.91;107996;1279;22553;-78
2022/06/18 02:11:43;;;;;;;21.50;12.70;;;;;;;10.59;76.80;99311.16;107962;1278;23321;-78
2022/06/18 02:14:15;;;;;;;23.20;14.50;;;;;;;10.57;76.72;99312.14;107969;1278;25046;-78
2022/06/18 02:16:45;;;;;;;25.00;15.10;;;;;;;10.55;76.31;99312.65;107968;1278;25505;-78
2022/06/18 02:19:15;;;;;;;18.70;11.70;;;;;;;10.57;76.20;99311.30;107954;1278;22620;-78
2022/06/18 02:21:46;;;;;;;19.00;12.80;;;;;;;10.57;76.78;99304.31;108008;1278;22633;-78
2022/06/18 02:24:16;;;;;;;22.90;13.50;;;;;;;10.57;76.90;99305.91;108013;1278;22557;-78
2022/06/18 02:26:45;;;;;;;21.80;13.60;;;;;;;10.54;76.88;99302.92;108282;1278;22573;-78
2022/06/18 02:29:18;;;;;;;20.60;13.10;;;;;;;10.53;76.35;99299.85;108075;1279;22538;-78
2022/06/18 02:31:46;;;;;;;19.70;12.30;;;;;;;10.52;76.39;99298.66;107971;1278;22624;-78
2022/06/18 02:34:18;;;;;;;22.40;12.70;;;;;;;10.54;76.43;99298.90;108124;1277;22554;-78
2022/06/18 02:36:47;;;;;;;16.60;11.40;;;;;;;10.55;76.78;99295.21;108247;1277;22573;-77
2022/06/18 02:39:29;;;;;;;21.50;12.20;;;;;;;10.55;77.26;99296.63;108296;1278;22557;-77
2022/06/18 02:42:19;;;;;;;20.50;11.90;;;;;;;10.53;77.17;99295.64;108303;1278;22585;-78
2022/06/18 02:44:49;;;;;;;24.00;12.80;;;;;;;10.51;76.69;99294.20;108300;1278;22559;-78
2022/06/18 02:47:18;;;;;;;21.10;11.50;;;;;;;10.48;76.24;99293.11;108298;1278;22550;-78
2022/06/18 02:49:58;;;;;;;19.90;11.70;;;;;;;10.49;76.48;99292.17;108331;1277;22627;-78
2022/06/18 02:52:30;;;;;;;18.50;12.00;;;;;;;10.48;76.82;99292.61;108283;1277;22561;-78
2022/06/18 02:55:09;;;;;;;22.50;13.50;;;;;;;10.45;77.34;99297.67;108288;1277;22568;-78
2022/06/18 02:57:37;;;;;;;25.20;14.70;;;;;;;10.43;76.85;99302.33;108279;1278;22632;-79
2022/06/18 03:00:08;;;;;;;22.90;13.30;;;;;;;10.43;76.83;99300.91;108299;1279;22553;-79
2022/06/18 03:02:35;;;;;;;22.80;12.60;;;;;;;10.49;76.76;99301.30;108274;1278;22565;-79
2022/06/18 03:05:02;;;;;;;20.20;12.70;;;;;;;10.58;76.66;99298.16;108273;1277;22562;-79
2022/06/18 03:07:29;;;;;;;21.50;12.70;;;;;;;10.69;76.93;99294.77;108276;1277;22587;-79
2022/06/18 03:12:42;;;;;;;21.60;14.00;;;;;;;10.96;77.34;99294.51;108309;1278;22696;-79
2022/06/18 03:15:09;;;;;;;24.90;14.60;;;;;;;11.11;77.13;99294.50;108281;1278;22551;-79
2022/06/18 03:17:36;;;;;;;27.50;15.00;;;;;;;11.31;77.40;99295.65;108276;1278;24269;-79
2022/06/18 03:20:13;;;;;;;25.70;16.50;;;;;;;11.49;77.43;99293.66;108259;1278;22556;-79
2022/06/18 03:22:40;;;;;;;27.60;17.10;;;;;;;11.67;77.56;99290.55;108287;1278;22541;-79
2022/06/18 03:25:07;;;;;;;27.30;16.30;;;;;;;11.82;77.91;99290.71;108305;1278;22567;-79
2022/06/18 03:27:34;;;;;;;25.60;17.50;;;;;;;11.91;78.06;99290.18;108263;1278;22813;-79
2022/06/18 03:30:03;;;;;;;28.00;17.90;;;;;;;11.97;78.08;99290.89;108303;1278;22560;-79
2022/06/18 03:32:32;;;;;;;28.70;18.50;;;;;;;11.99;77.50;99291.94;108297;1278;22650;-79
2022/06/18 03:34:58;;;;;;;27.30;18.30;;;;;;;12.00;76.93;99291.52;108286;1278;22581;-79
2022/06/18 03:37:25;;;;;;;31.10;18.90;;;;;;;11.99;76.36;99291.07;108273;1278;22565;-79
2022/06/18 03:39:52;;;;;;;27.90;17.00;;;;;;;12.01;75.85;99290.09;108296;1278;22553;-79
2022/06/18 03:42:20;;;;;;;26.30;17.20;;;;;;;12.05;75.64;99288.30;108312;1277;22639;-79
2022/06/18 03:44:47;;;;;;;27.70;17.70;;;;;;;12.09;75.91;99288.20;108282;1278;22726;-79
2022/06/18 03:47:14;;;;;;;30.10;18.90;;;;;;;12.15;76.17;99291.02;108266;1278;22597;-79
2022/06/18 03:49:41;;;;;;;31.30;20.20;;;;;;;12.19;76.02;99291.76;108271;1278;22580;-79
2022/06/18 03:52:10;;;;;;;34.40;19.80;;;;;;;12.24;75.55;99293.76;108258;1278;25246;-79
2022/06/18 03:54:38;;;;;;;34.00;20.70;;;;;;;12.26;75.38;99293.09;108081;1277;24088;-78
2022/06/18 03:57:05;;;;;;;27.80;18.70;;;;;;;12.29;75.19;99294.11;108006;1277;24383;-78
2022/06/18 03:59:34;;;;;;;28.10;17.80;;;;;;;12.37;75.39;99294.00;108009;1278;22605;-78
2022/06/18 04:02:01;;;;;;;28.30;19.10;;;;;;;12.42;76.10;99299.49;107961;1278;22570;-78
2022/06/18 04:04:28;;;;;;;28.30;18.20;;;;;;;12.44;76.41;99298.83;108015;1278;26709;-78
2022/06/18 04:06:55;;;;;;;28.50;17.90;;;;;;;12.45;76.29;99300.67;107966;1277;22712;-78
2022/06/18 04:09:22;;;;;;;27.10;18.30;;;;;;;12.48;75.98;99300.11;107991;1278;22529;-78
2022/06/18 04:11:49;;;;;;;29.50;18.50;;;;;;;12.54;75.62;99299.58;107967;1278;22563;-78
2022/06/18 04:14:16;;;;;;;27.20;17.10;;;;;;;12.61;75.54;99297.19;108001;1278;22546;-78
2022/06/18 04:16:43;;;;;;;24.20;15.30;;;;;;;12.73;76.07;99302.04;107978;1277;22568;-78
2022/06/18 04:19:10;;;;;;;22.40;13.40;;;;;;;12.80;76.72;99299.11;108006;1278;23986;-78
2022/06/18 04:21:37;;;;;;;22.40;15.70;;;;;;;12.88;77.10;99303.71;107970;1278;22567;-78
2022/06/18 04:24:04;;;;;;;24.70;14.90;;;;;;;12.92;77.12;99300.98;108025;1278;22568;-79
2022/06/18 04:26:31;;;;;;;22.30;15.30;;;;;;;13.02;76.76;99300.52;107966;1278;25447;-78
2022/06/18 04:28:58;;;;;;;20.00;13.30;;;;;;;13.17;76.68;99297.29;107981;1277;23341;-78
2022/06/18 04:31:25;;;;;;;18.60;14.10;;;;;;;13.35;76.95;99299.95;107973;1277;22560;-78
2022/06/18 04:33:52;;;;;;;22.00;13.70;;;;;;;13.51;77.38;99297.86;107971;1277;22539;-78
2022/06/18 04:36:30;;;;;;;20.40;14.20;;;;;;;13.69;77.76;99299.91;108015;1278;24305;-78
2022/06/18 04:38:58;;;;;;;19.80;13.90;;;;;;;14.00;79.23;99300.29;107986;1277;22547;-78
2022/06/18 04:41:25;;;;;;;16.90;12.20;;;;;;;14.36;79.73;99298.13;107968;1277;22553;-78
2022/06/18 04:43:52;;;;;;;21.60;12.30;;;;;;;14.76;79.53;99292.50;107966;1277;22564;-78
2022/06/18 04:46:19;;;;;;;14.50;9.90;;;;;;;15.20;79.24;99293.34;107969;1277;23051;-78
2022/06/18 04:48:46;;;;;;;14.70;10.70;;;;;;;15.66;78.06;99290.22;107944;1277;22547;-78
2022/06/18 04:51:13;;;;;;;16.20;8.80;;;;;;;16.17;77.83;99289.33;107996;1277;22558;-79
2022/06/18 04:53:40;;;;;;;12.40;8.20;;;;;;;16.61;76.59;99284.06;107951;1278;22573;-79
2022/06/18 04:56:08;;;;;;;12.10;7.30;;;;;;;17.06;75.95;99284.28;107994;1277;22582;-79
2022/06/18 04:58:35;;;;;;;13.60;8.10;;;;;;;17.49;74.72;99282.32;107953;1278;22569;-79
2022/06/18 05:01:03;;;;;;;12.40;7.20;;;;;;;17.85;73.78;99285.27;107950;1277;22553;-79
2022/06/18 05:03:30;;;;;;;11.50;7.00;;;;;;;18.21;72.06;99284.14;107965;1278;22608;-78
2022/06/18 05:05:58;;;;;;;10.40;6.80;;;;;;;18.50;70.10;99286.95;108005;1277;25242;-79
2022/06/18 05:08:26;;;;;;;12.60;6.40;;;;;;;18.86;69.71;99289.15;108014;1278;22573;-79
2022/06/18 05:10:53;;;;;;;10.20;6.00;;;;;;;19.22;68.48;99288.38;107977;1278;25242;-79
2022/06/18 05:13:20;;;;;;;9.40;6.10;;;;;;;19.56;66.16;99282.71;107976;1278;22570;-79
2022/06/18 05:15:48;;;;;;;10.90;6.20;;;;;;;19.87;65.80;99288.23;107939;1278;22575;-79
2022/06/18 05:18:17;;;;;;;10.50;6.00;;;;;;;20.29;65.28;99284.29;107952;1277;22557;-79
2022/06/18 05:20:48;;;;;;;10.90;5.30;;;;;;;20.72;63.91;99280.52;108028;1277;22549;-79
2022/06/18 05:23:15;;;;;;;9.70;5.50;;;;;;;21.09;62.50;99281.29;107989;1278;22608;-79
2022/06/18 05:25:44;;;;;;;10.70;6.10;;;;;;;21.47;61.75;99282.33;107955;1278;22583;-79
2022/06/18 05:28:12;;;;;;;11.00;5.90;;;;;;;21.61;58.84;99284.84;107958;1278;22563;-79
2022/06/18 05:30:40;;;;;;;10.10;5.80;;;;;;;21.47;57.60;99286.48;107993;1277;22535;-79
2022/06/18 05:33:08;;;;;;;10.60;5.60;;;;;;;21.32;57.56;99287.05;107976;1277;22561;-79
2022/06/18 05:35:38;;;;;;;9.40;5.90;;;;;;;21.26;57.10;99284.79;108097;1277;22573;-78
2022/06/18 05:38:05;;;;;;;10.20;5.70;;;;;;;21.16;56.77;99286.01;107958;1277;22566;-79
2022/06/18 05:40:32;;;;;;;9.60;5.70;;;;;;;21.06;56.43;99284.48;107959;1278;22573;-79
2022/06/18 05:42:59;;;;;;;9.80;5.90;;;;;;;21.02;55.94;99283.13;107975;1277;25373;-79
2022/06/18 05:45:26;;;;;;;9.50;5.90;;;;;;;20.98;55.23;99288.84;107974;1277;22628;-79
2022/06/18 05:47:53;;;;;;;10.80;5.70;;;;;;;20.88;55.24;99289.75;107957;1278;22581;-79
2022/06/18 05:50:20;;;;;;;9.80;5.70;;;;;;;20.85;54.81;99285.46;107991;1277;22564;-79
2022/06/18 05:52:48;;;;;;;9.70;6.00;;;;;;;20.82;54.73;99287.23;107981;1278;23063;-79
2022/06/18 05:55:20;;;;;;;9.70;6.00;;;;;;;20.78;54.59;99280.66;107974;1277;22583;-79
2022/06/18 05:57:50;;;;;;;9.70;5.80;;;;;;;20.85;54.89;99281.20;108001;1278;25277;-79
2022/06/18 06:00:21;;;;;;;9.70;5.60;;;;;;;20.83;54.46;99278.02;107962;1277;24067;-79
2022/06/18 06:02:48;;;;;;;10.10;5.60;;;;;;;20.76;54.59;99275.41;107965;1277;25190;-78
2022/06/18 06:05:15;;;;;;;10.10;5.80;;;;;;;20.73;54.53;99273.75;107970;1277;22560;-79
2022/06/18 06:07:44;;;;;;;12.00;5.80;;;;;;;20.75;54.24;99268.25;108021;1277;22549;-78
2022/06/18 06:13:10;;;;;;;10.50;6.00;;;;;;;20.68;54.45;99261.87;107971;1277;22532;-78
2022/06/18 06:15:39;;;;;;;9.50;5.30;;;;;;;20.66;54.65;99263.62;107991;1278;23353;-79
2022/06/18 06:18:07;;;;;;;9.10;5.40;;;;;;;20.70;54.78;99264.67;108226;1277;22559;-79
2022/06/18 06:20:38;;;;;;;9.30;5.50;;;;;;;20.77;54.28;99263.77;108277;1277;22570;-79
2022/06/18 06:23:09;;;;;;;8.70;5.00;;;;;;;20.82;54.27;99259.02;108273;1277;22557;-79
2022/06/18 06:25:37;;;;;;;11.80;5.30;;;;;;;20.88;54.22;99256.98;108285;1277;22548;-79
2022/06/18 06:28:08;;;;;;;10.80;5.20;;;;;;;20.94;54.26;99253.09;108269;1278;22606;-79
2022/06/18 06:30:38;;;;;;;12.60;5.10;;;;;;;21.04;53.96;99255.45;108285;1277;22567;-79
2022/06/18 06:33:05;;;;;;;10.40;4.90;;;;;;;21.15;53.83;99254.37;108336;1277;22524;-79
2022/06/18 06:35:33;;;;;;;10.20;4.90;;;;;;;21.23;53.61;99250.02;108296;1277;22588;-79
2022/06/18 06:38:01;;;;;;;8.00;4.50;;;;;;;21.32;53.55;99251.98;108275;1277;23134;-79
2022/06/18 06:40:30;;;;;;;8.00;4.30;;;;;;;21.40;53.21;99253.99;108261;1277;22545;-79
2022/06/18 06:42:57;;;;;;;7.60;4.60;;;;;;;21.49;53.10;99253.58;108297;1277;22531;-79
2022/06/18 06:45:27;;;;;;;9.00;4.20;;;;;;;21.62;53.20;99256.38;108268;1277;22545;-79
2022/06/18 06:47:54;;;;;;;8.60;4.20;;;;;;;21.69;53.02;99256.23;108297;1277;22558;-78
2022/06/18 06:50:23;;;;;;;7.60;4.00;;;;;;;21.76;53.02;99258.66;108304;1277;22563;-78
2022/06/18 06:52:51;;;;;;;8.50;4.00;;;;;;;21.81;53.08;99261.36;108313;1278;22554;-79
2022/06/18 06:58:10;;;;;;;10.00;4.10;;;;;;;21.93;53.20;99264.88;108294;1277;22516;-78
2022/06/18 07:00:41;;;;;;;9.40;3.40;;;;;;;21.90;52.65;99267.13;108300;1277;22556;-79
2022/06/18 07:03:15;;;;;;;9.40;3.90;;;;;;;21.90;52.86;99265.38;108288;1277;22558;-79
2022/06/18 07:05:42;;;;;;;7.80;4.20;;;;;;;21.91;52.88;99261.86;108322;1277;22569;-79
2022/06/18 07:08:09;;;;;;;6.40;3.30;;;;;;;21.97;53.29;99259.69;108305;1277;22594;-78
2022/06/18 07:10:36;;;;;;;6.80;3.20;;;;;;;22.03;53.04;99258.43;108268;1277;22557;-79
2022/06/18 07:13:04;;;;;;;6.40;3.50;;;;;;;22.14;52.93;99256.54;108313;1277;22541;-78
2022/06/18 07:15:34;;;;;;;7.10;3.30;;;;;;;22.21;51.93;99252.95;108301;1277;23048;-79
2022/06/18 07:18:03;;;;;;;5.80;2.90;;;;;;;22.21;51.43;99255.67;108286;1277;22571;-79
2022/06/18 07:20:31;;;;;;;9.20;3.50;;;;;;;22.20;51.18;99255.34;108251;1277;22580;-79
2022/06/18 07:22:58;;;;;;;4.30;2.40;;;;;;;22.23;50.73;99256.33;108304;1278;22691;-78
2022/06/18 07:25:25;;;;;;;5.70;2.70;;;;;;;22.38;50.84;99260.65;108343;1277;22552;-78
2022/06/18 07:27:54;;;;;;;3.70;2.40;;;;;;;22.48;50.59;99259.23;108282;1277;22558;-78
2022/06/18 07:30:21;;;;;;;7.20;2.90;;;;;;;22.54;50.54;99259.13;108303;1277;22822;-78
2022/06/18 07:32:49;;;;;;;4.80;2.60;;;;;;;22.60;50.53;99262.60;108304;1277;22544;-80
2022/06/18 07:35:23;;;;;;;4.60;2.90;;;;;;;22.62;50.04;99259.15;108298;1277;22561;-78
2022/06/18 07:37:51;;;;;;;5.60;2.70;;;;;;;22.61;50.27;99253.03;108278;1277;22557;-78
2022/06/18 07:40:18;;;;;;;9.20;4.00;;;;;;;22.72;50.11;99239.95;108282;1278;25388;-78
2022/06/18 07:42:47;;;;;;;7.60;3.40;;;;;;;22.87;48.94;99236.52;108284;1277;22569;-78
2022/06/18 07:45:19;;;;;;;6.20;3.40;;;;;;;23.00;49.41;99235.84;108297;1277;22569;-78
2022/06/18 07:47:48;;;;;;;5.10;3.10;;;;;;;23.16;49.12;99231.00;108035;1277;26697;-79
2022/06/18 07:50:16;;;;;;;4.70;2.70;;;;;;;23.33;48.95;99229.35;108024;1277;22561;-79
2022/06/18 07:52:44;;;;;;;8.20;2.40;;;;;;;23.44;47.75;99231.98;108092;1277;22639;-79
2022/06/18 07:55:21;;;;;;;5.40;2.40;;;;;;;23.56;46.99;99224.90;108088;1277;22554;-79
2022/06/18 07:57:49;;;;;;;5.00;2.50;;;;;;;23.61;46.93;99223.07;108038;1277;22531;-79
2022/06/18 08:00:19;;;;;;;4.10;2.50;;;;;;;23.74;46.94;99219.35;108023;1277;25521;-78
2022/06/18 08:02:47;;;;;;;8.60;3.00;;;;;;;23.83;47.03;99216.86;107972;1277;22565;-78
2022/06/18 08:05:21;;;;;;;7.10;2.60;;;;;;;23.92;46.60;99216.04;107993;1277;22550;-79
2022/06/18 08:07:49;;;;;;;5.40;2.20;;;;;;;24.01;46.48;99219.02;107987;1277;22668;-80
2022/06/18 08:10:17;;;;;;;4.80;2.40;;;;;;;24.08;45.99;99215.08;107986;1277;24329;-84
2022/06/18 08:12:44;;;;;;;4.20;2.40;;;;;;;24.15;45.97;99212.63;108007;1277;22556;-78
2022/06/18 08:15:12;;;;;;;5.50;2.30;;;;;;;24.22;45.16;99210.55;108058;1277;22569;-77
2022/06/18 08:17:39;;;;;;;4.10;2.40;;;;;;;24.28;44.47;99209.05;108110;1277;22548;-78
2022/06/18 08:20:08;;;;;;;3.90;2.20;;;;;;;24.28;43.81;99210.98;107999;1277;22542;-78
2022/06/18 08:22:38;;;;;;;4.00;2.30;;;;;;;24.34;43.57;99208.70;108014;1277;22566;-81
2022/06/18 08:25:06;;;;;;;9.10;2.20;;;;;;;24.38;43.02;99203.48;108097;1277;22627;-74
2022/06/18 08:27:34;;;;;;;5.30;2.50;;;;;;;24.35;43.29;99197.52;108327;1277;22584;-79
2022/06/18 08:30:01;;;;;;;8.10;3.50;;;;;;;24.42;43.25;99193.88;108270;1277;22633;-79
2022/06/18 08:32:28;;;;;;;6.10;3.30;;;;;;;24.43;42.42;99193.93;108237;1277;22587;-79
2022/06/18 08:34:55;;;;;;;4.50;2.90;;;;;;;24.46;42.48;99191.73;108377;1277;22556;-79
2022/06/18 08:37:23;;;;;;;9.20;3.40;;;;;;;24.47;42.52;99193.76;108373;1277;25467;-80
2022/06/18 08:39:50;;;;;;;5.80;3.30;;;;;;;24.42;42.02;99192.27;108280;1277;22640;-78
2022/06/18 08:43:01;;;;;;;6.20;2.90;;;;;;;24.43;42.19;99188.39;108311;1277;22560;-80
2022/06/18 08:46:00;;;;;;;5.50;2.60;;;;;;;24.53;42.38;99184.08;108317;1277;22552;-80
2022/06/18 08:48:52;;;;;;;3.90;2.10;;;;;;;24.69;41.92;99175.80;108306;1277;22548;-80
2022/06/18 08:51:37;;;;;;;5.50;2.30;;;;;;;24.82;40.79;99172.15;108295;1277;24636;-79
2022/06/18 08:54:21;;;;;;;4.00;2.10;;;;;;;25.00;41.04;99169.61;108288;1277;22549;-81
2022/06/18 08:56:59;;;;;;;4.00;2.20;;;;;;;25.24;40.08;99168.35;108320;1277;22536;-80
2022/06/18 08:59:26;;;;;;;3.10;2.00;;;;;;;25.53;40.13;99170.80;108322;1277;22571;-79
2022/06/18 09:02:06;;;;;;;3.60;1.90;;;;;;;25.77;39.85;99172.45;108310;1277;22587;-80
2022/06/18 09:04:33;;;;;;;4.20;2.50;;;;;;;26.01;39.60;99171.23;108355;1278;22543;-80
2022/06/18 09:07:22;;;;;;;4.00;2.50;;;;;;;26.26;39.25;99167.34;108301;1277;24230;-79
2022/06/18 09:10:26;;;;;;;3.90;2.10;;;;;;;26.57;38.46;99165.27;108304;1277;23074;-82
2022/06/18 09:13:04;;;;;;;5.30;1.90;;;;;;;26.80;37.42;99166.41;108304;1277;22602;-79
2022/06/18 09:15:37;;;;;;;4.40;1.70;;;;;;;26.95;37.21;99160.89;108298;1277;22537;-79
2022/06/18 09:18:14;;;;;;;;;;;;;;;26.97;36.80;99157.16;108345;1277;25484;-80
2022/06/18 09:20:49;;;;;;;4.80;1.80;;;;;;;26.97;37.82;99159.92;108305;1277;22540;-79
2022/06/18 09:23:20;;;;;;;3.10;1.60;;;;;;;27.07;37.38;99157.99;108064;1277;287435;-79
2022/06/18 09:25:51;;;;;;;5.70;1.80;;;;;;;26.99;37.25;99159.77;108294;1277;22631;-79
2022/06/18 09:28:27;;;;;;;2.30;1.60;;;;;;;26.88;37.14;99163.73;108307;1277;22619;-79
2022/06/18 09:31:04;;;;;;;2.90;1.80;;;;;;;26.89;37.33;99160.80;108304;1277;22587;-79
2022/06/18 09:33:46;;;;;;;6.20;2.50;;;;;;;26.93;37.03;99159.89;108307;1277;22573;-79
2022/06/18 09:36:19;;;;;;;6.10;3.20;;;;;;;27.01;36.40;99162.83;108303;1277;23774;-79
2022/06/18 09:38:54;;;;;;;6.40;2.90;;;;;;;27.13;36.40;99166.21;108294;1277;22557;-80
2022/06/18 09:41:39;;;;;;;4.70;1.90;;;;;;;27.24;37.15;99166.73;108281;1277;22586;-79
2022/06/18 09:44:26;;;;;;;4.60;2.00;;;;;;;27.25;36.87;99160.00;108289;1277;22587;-80
2022/06/18 09:47:00;;;;;;;3.60;1.90;;;;;;;27.10;36.49;99158.48;108125;1277;23972;-77
2022/06/18 09:49:29;;;;;;;5.00;1.90;;;;;;;26.85;36.49;99159.42;108017;1277;22625;-82
2022/06/18 09:52:12;;;;;;;6.10;1.80;;;;;;;26.68;37.10;99155.54;108030;1277;22534;-79
2022/06/18 09:54:50;;;;;;;4.40;1.80;;;;;;;26.55;36.72;99148.09;108049;1277;22835;-80
2022/06/18 09:57:22;;;;;;;3.20;2.10;;;;;;;26.45;37.14;99149.86;107989;1277;22604;-79
2022/06/18 10:00:02;;;;;;;2.60;1.80;;;;;;;26.40;37.63;99149.04;107955;1277;22552;-76
2022/06/18 10:02:31;;;;;;;3.90;1.90;;;;;;;26.45;37.62;99148.52;107951;1278;23390;-79
2022/06/18 10:07:52;;;;;;;6.60;2.50;;;;;;;26.82;37.33;99137.90;108001;1277;22640;-79
2022/06/18 10:10:24;;;;;;;5.40;2.30;;;;;;;26.89;36.65;99142.48;107956;1277;22747;-79
2022/06/18 10:12:55;;;;;;;2.80;1.90;;;;;;;27.01;36.77;99135.38;107954;1277;22617;-79
2022/06/18 10:15:24;;;;;;;4.60;2.90;;;;;;;27.02;36.09;99134.54;108031;1277;22541;-79
2022/06/18 10:18:21;;;;;;;3.30;2.40;;;;;;;26.96;37.23;99130.14;108142;1277;22567;-79
2022/06/18 10:21:01;;;;;;;5.40;2.20;;;;;;;26.85;37.24;99127.29;107606;1284;22544;-80
2022/06/18 10:23:49;;;;;;;4.50;2.30;;;;;;;26.83;37.27;99126.25;107550;1284;22606;-80
2022/06/18 10:26:44;;;;;;;2.60;1.80;;;;;;;26.75;37.03;99121.63;107420;1284;22584;-79
2022/06/18 10:29:33;;;;;;;4.90;2.30;;;;;;;26.76;37.51;99119.86;107422;1284;24508;-78
2022/06/18 10:32:30;;;;;;;3.70;2.10;;;;;;;26.77;37.45;99116.77;107450;1284;22565;-78
2022/06/18 10:35:30;;;;;;;4.70;1.70;;;;;;;26.69;37.19;99110.92;107437;1284;24519;-78
2022/06/18 10:38:15;;;;;;;4.70;1.80;;;;;;;26.66;36.92;99105.63;107432;1284;22808;-79
2022/06/18 10:41:05;;;;;;;3.90;1.70;;;;;;;26.64;37.44;99102.44;107451;1284;25407;-79
2022/06/18 10:44:01;;;;;;;3.10;2.10;;;;;;;26.59;37.55;99096.66;107449;1284;22552;-79
2022/06/18 10:46:29;;;;;;;5.00;2.40;;;;;;;26.52;36.70;99090.23;107448;1284;22806;-79
2022/06/18 10:49:07;;;;;;;3.50;2.00;;;;;;;26.49;36.87;99083.77;107428;1284;22846;-79
2022/06/18 10:51:45;;;;;;;4.30;2.20;;;;;;;26.52;36.49;99080.89;107442;1284;22555;-77
2022/06/18 10:54:13;;;;;;;4.10;2.30;;;;;;;26.51;36.32;99076.51;107558;1284;22574;-78
2022/06/18 10:56:50;;;;;;;5.80;2.20;;;;;;;26.56;36.77;99073.47;107714;1284;22863;-77
2022/06/18 10:59:47;;;;;;;3.70;1.80;;;;;;;26.65;36.92;99067.41;107943;1277;22558;-77
2022/06/18 11:02:32;;;;;;;3.70;1.80;;;;;;;26.70;37.02;99067.61;107925;1277;24295;-77
2022/06/18 11:05:04;;;;;;;3.80;2.30;;;;;;;26.70;36.83;99065.84;108032;1277;22679;-79
2022/06/18 11:07:34;;;;;;;4.20;1.90;;;;;;;26.72;36.63;99066.98;108023;1277;22547;-79
2022/06/18 11:10:19;;;;;;;4.50;1.90;;;;;;;26.70;36.44;99065.31;107973;1277;22737;-76
2022/06/18 11:12:54;;;;;;;4.00;2.10;;;;;;;26.72;37.13;99062.86;108013;1277;23494;-76
2022/06/18 11:15:31;;;;;;;4.10;2.30;;;;;;;26.71;37.21;99063.75;108032;1277;22590;-76
2022/06/18 11:17:59;;;;;;;4.40;2.50;;;;;;;26.74;36.55;99058.55;108038;1277;25270;-76
2022/06/18 11:20:29;;;;;;;3.30;1.80;;;;;;;26.76;35.51;99056.59;108021;1278;22582;-78
2022/06/18 11:23:01;;;;;;;3.30;1.80;;;;;;;26.64;35.05;99056.36;108017;1277;22774;-79
2022/06/18 11:25:45;;;;;;;8.30;2.10;;;;;;;26.61;35.84;99045.86;108032;1277;22510;-78
2022/06/18 11:28:18;;;;;;;5.40;2.50;;;;;;;26.63;36.00;99047.58;107981;1277;22630;-78
2022/06/18 11:30:48;;;;;;;5.40;2.60;;;;;;;26.70;36.59;99047.45;108093;1277;22611;-79
2022/06/18 11:33:42;;;;;;;5.80;3.60;;;;;;;26.77;36.88;99041.46;108058;1277;23978;-77
2022/06/18 11:36:17;;;;;;;4.30;2.80;;;;;;;26.85;36.49;99039.64;108004;1277;22570;-79
2022/06/18 11:38:54;;;;;;;7.20;2.50;;;;;;;26.81;36.14;99044.56;107948;1277;22548;-79
2022/06/18 11:41:28;;;;;;;4.60;2.30;;;;;;;26.82;35.79;99040.11;107984;1277;22555;-78
2022/06/18 11:44:20;;;;;;;3.00;1.90;;;;;;;26.86;36.40;99032.34;108037;1277;22844;-79
2022/06/18 11:47:04;;;;;;;3.10;1.80;;;;;;;26.97;36.23;99026.19;108299;1277;22638;-78
2022/06/18 11:49:37;;;;;;;3.90;1.70;;;;;;;26.98;35.98;99022.61;108231;1277;22584;-78
2022/06/18 11:52:20;;;;;;;2.80;1.80;;;;;;;27.00;35.63;99023.99;108310;1277;22723;-79
2022/06/18 11:55:18;;;;;;;4.60;1.80;;;;;;;27.07;35.56;99022.77;108283;1277;24204;-79
2022/06/18 11:58:09;;;;;;;3.90;2.00;;;;;;;27.11;34.92;99017.01;108300;1277;22592;-79